Terminal Aerodrome Forecast
Issued by NWS Cleveland, OH

Home | Current Version | Previous Version | Graphics & Text | Print | Product List | Glossary On
Versions: 1 2 3 4 5 6 7 8 9 10 11 12 13 14 15 16 17 18 19 20 21 22
000
FTUS41 KCLE 170500
TAFCAK
TAF
KCAK 170525Z 1706/1806 25012KT P6SM VCSH OVC008
     FM171300 27012G22KT P6SM OVC012
     FM171900 27012G22KT P6SM OVC020
     FM172300 27010KT P6SM OVC025=

USA.gov is the U.S. government's official web portal to all federal, state and local government web resources and services.